sensor_id;sensor_type;location;lat;lon;timestamp;pressure;altitude;pressure_sealevel;temperature;humidity
7058;BME280;3570;43.080;25.628;2022-12-07T00:00:13;-19589.25;;;4.66;100.00
7058;BME280;3570;43.080;25.628;2022-12-07T00:02:57;-19590.59;;;4.70;100.00
7058;BME280;3570;43.080;25.628;2022-12-07T00:05:41;-19586.78;;;4.57;100.00
7058;BME280;3570;43.080;25.628;2022-12-07T00:08:25;-19582.66;;;4.43;100.00
7058;BME280;3570;43.080;25.628;2022-12-07T00:11:15;-19585.31;;;4.52;100.00
7058;BME280;3570;43.080;25.628;2022-12-07T00:14:02;-19588.25;;;4.62;100.00
7058;BME280;3570;43.080;25.628;2022-12-07T00:16:49;-19596.44;;;4.91;100.00
7058;BME280;3570;43.080;25.628;2022-12-07T00:19:34;-19590.16;;;4.69;100.00
7058;BME280;3570;43.080;25.628;2022-12-07T00:22:18;-19599.09;;;5.00;100.00
7058;BME280;3570;43.080;25.628;2022-12-07T00:25:02;-19598.94;;;4.99;100.00
7058;BME280;3570;43.080;25.628;2022-12-07T00:27:46;-19598.22;;;4.97;100.00
7058;BME280;3570;43.080;25.628;2022-12-07T00:30:30;-19600.84;;;5.06;100.00
7058;BME280;3570;43.080;25.628;2022-12-07T00:33:14;-19601.72;;;5.09;100.00
7058;BME280;3570;43.080;25.628;2022-12-07T00:35:59;-19607.44;;;5.28;100.00
7058;BME280;3570;43.080;25.628;2022-12-07T00:38:43;-19607.00;;;5.27;100.00
7058;BME280;3570;43.080;25.628;2022-12-07T00:41:29;-19607.00;;;5.27;100.00
7058;BME280;3570;43.080;25.628;2022-12-07T00:44:13;-19596.31;;;4.90;100.00
7058;BME280;3570;43.080;25.628;2022-12-07T00:46:57;-19605.53;;;5.22;100.00
7058;BME280;3570;43.080;25.628;2022-12-07T00:49:41;-19601.59;;;5.08;100.00
7058;BME280;3570;43.080;25.628;2022-12-07T00:52:25;-19598.50;;;4.98;100.00
7058;BME280;3570;43.080;25.628;2022-12-07T00:55:09;-19605.09;;;5.20;100.00
7058;BME280;3570;43.080;25.628;2022-12-07T00:57:53;-19601.44;;;5.08;100.00
7058;BME280;3570;43.080;25.628;2022-12-07T01:00:38;-19610.53;;;5.39;100.00
7058;BME280;3570;43.080;25.628;2022-12-07T01:03:23;-19606.56;;;5.25;100.00
7058;BME280;3570;43.080;25.628;2022-12-07T01:06:07;-19610.38;;;5.38;100.00
7058;BME280;3570;43.080;25.628;2022-12-07T01:08:51;-19608.19;;;5.31;100.00
7058;BME280;3570;43.080;25.628;2022-12-07T01:11:35;-19606.41;;;5.25;100.00
7058;BME280;3570;43.080;25.628;2022-12-07T01:14:19;-19596.00;;;4.89;100.00
7058;BME280;3570;43.080;25.628;2022-12-07T01:17:03;-19604.97;;;5.20;100.00
7058;BME280;3570;43.080;25.628;2022-12-07T01:19:47;-19602.91;;;5.13;100.00
7058;BME280;3570;43.080;25.628;2022-12-07T01:22:31;-19603.50;;;5.15;100.00
7058;BME280;3570;43.080;25.628;2022-12-07T01:25:15;-19603.78;;;5.16;100.00
7058;BME280;3570;43.080;25.628;2022-12-07T01:27:59;-19603.78;;;5.16;100.00
7058;BME280;3570;43.080;25.628;2022-12-07T01:30:43;-19598.22;;;4.97;100.00
7058;BME280;3570;43.080;25.628;2022-12-07T01:33:29;-19610.38;;;5.38;100.00
7058;BME280;3570;43.080;25.628;2022-12-07T01:39:02;-19605.84;;;5.23;100.00
7058;BME280;3570;43.080;25.628;2022-12-07T01:41:47;-19592.19;;;4.76;100.00
7058;BME280;3570;43.080;25.628;2022-12-07T01:47:56;-19599.69;;;5.02;100.00
7058;BME280;3570;43.080;25.628;2022-12-07T01:50:41;-19599.25;;;5.00;100.00
7058;BME280;3570;43.080;25.628;2022-12-07T01:53:29;-19600.41;;;5.04;100.00
7058;BME280;3570;43.080;25.628;2022-12-07T01:56:17;-19598.50;;;4.98;100.00
7058;BME280;3570;43.080;25.628;2022-12-07T01:59:03;-19598.34;;;4.97;100.00
7058;BME280;3570;43.080;25.628;2022-12-07T02:01:47;-19598.34;;;4.97;100.00
7058;BME280;3570;43.080;25.628;2022-12-07T02:04:31;-19585.00;;;4.51;100.00
7058;BME280;3570;43.080;25.628;2022-12-07T02:07:16;-19597.63;;;4.95;100.00
7058;BME280;3570;43.080;25.628;2022-12-07T02:13:23;-19597.03;;;4.93;100.00
7058;BME280;3570;43.080;25.628;2022-12-07T03:13:45;-19579.59;;;4.33;100.00
7058;BME280;3570;43.080;25.628;2022-12-07T03:16:45;-19580.75;;;4.37;100.00
7058;BME280;3570;43.080;25.628;2022-12-07T03:19:34;-19583.41;;;4.46;100.00
7058;BME280;3570;43.080;25.628;2022-12-07T03:22:19;-19584.13;;;4.48;100.00
7058;BME280;3570;43.080;25.628;2022-12-07T03:25:10;-19584.44;;;4.49;100.00
7058;BME280;3570;43.080;25.628;2022-12-07T03:27:58;-19583.41;;;4.46;100.00
7058;BME280;3570;43.080;25.628;2022-12-07T03:30:50;-19585.91;;;4.54;100.00
7058;BME280;3570;43.080;25.628;2022-12-07T03:33:40;-19585.59;;;4.53;100.00
7058;BME280;3570;43.080;25.628;2022-12-07T03:36:50;-19586.03;;;4.55;100.00
7058;BME280;3570;43.080;25.628;2022-12-07T03:39:57;-19586.03;;;4.55;100.00
7058;BME280;3570;43.080;25.628;2022-12-07T03:42:46;-19588.53;;;4.63;100.00
7058;BME280;3570;43.080;25.628;2022-12-07T03:49:06;-19588.81;;;4.64;100.00
7058;BME280;3570;43.080;25.628;2022-12-07T03:52:02;-19585.75;;;4.54;100.00
7058;BME280;3570;43.080;25.628;2022-12-07T03:56:08;-19591.31;;;4.73;100.00
7058;BME280;3570;43.080;25.628;2022-12-07T03:58:53;-19578.28;;;4.28;100.00
7058;BME280;3570;43.080;25.628;2022-12-07T04:01:38;-19587.94;;;4.61;100.00
7058;BME280;3570;43.080;25.628;2022-12-07T04:04:24;-19588.38;;;4.63;100.00
7058;BME280;3570;43.080;25.628;2022-12-07T04:07:08;-19580.75;;;4.37;100.00
7058;BME280;3570;43.080;25.628;2022-12-07T04:09:53;-19589.13;;;4.65;100.00
7058;BME280;3570;43.080;25.628;2022-12-07T04:12:38;-19582.38;;;4.42;100.00
7058;BME280;3570;43.080;25.628;2022-12-07T04:15:22;-19588.25;;;4.62;100.00
7058;BME280;3570;43.080;25.628;2022-12-07T04:18:06;-19588.97;;;4.65;100.00
7058;BME280;3570;43.080;25.628;2022-12-07T04:20:50;-19590.00;;;4.68;100.00
7058;BME280;3570;43.080;25.628;2022-12-07T04:23:34;-19591.91;;;4.75;100.00
7058;BME280;3570;43.080;25.628;2022-12-07T04:26:18;-19593.97;;;4.82;100.00
7058;BME280;3570;43.080;25.628;2022-12-07T04:29:02;-19593.97;;;4.82;100.00
7058;BME280;3570;43.080;25.628;2022-12-07T04:31:47;-19590.88;;;4.71;100.00
7058;BME280;3570;43.080;25.628;2022-12-07T04:34:32;-19587.94;;;4.61;100.00
7058;BME280;3570;43.080;25.628;2022-12-07T04:37:16;-19591.19;;;4.72;100.00
7058;BME280;3570;43.080;25.628;2022-12-07T04:40:01;-19589.13;;;4.65;100.00
7058;BME280;3570;43.080;25.628;2022-12-07T04:42:45;-19596.00;;;4.89;100.00
7058;BME280;3570;43.080;25.628;2022-12-07T04:45:29;-19595.28;;;4.87;100.00
7058;BME280;3570;43.080;25.628;2022-12-07T04:48:13;-19595.88;;;4.89;100.00
7058;BME280;3570;43.080;25.628;2022-12-07T04:50:57;-19601.72;;;5.09;100.00
7058;BME280;3570;43.080;25.628;2022-12-07T04:53:41;-19602.31;;;5.11;100.00
7058;BME280;3570;43.080;25.628;2022-12-07T04:56:25;-19601.59;;;5.08;100.00
7058;BME280;3570;43.080;25.628;2022-12-07T04:59:11;-19602.47;;;5.11;100.00
7058;BME280;3570;43.080;25.628;2022-12-07T05:01:55;-19598.81;;;4.99;100.00
7058;BME280;3570;43.080;25.628;2022-12-07T05:04:39;-19602.31;;;5.11;100.00
7058;BME280;3570;43.080;25.628;2022-12-07T05:07:23;-19603.50;;;5.15;100.00
7058;BME280;3570;43.080;25.628;2022-12-07T05:10:07;-19606.72;;;5.26;100.00
7058;BME280;3570;43.080;25.628;2022-12-07T05:12:51;-19606.13;;;5.24;100.00
7058;BME280;3570;43.080;25.628;2022-12-07T05:15:35;-19605.53;;;5.22;100.00
7058;BME280;3570;43.080;25.628;2022-12-07T05:18:19;-19604.66;;;5.19;100.00
7058;BME280;3570;43.080;25.628;2022-12-07T05:21:03;-19607.00;;;5.27;100.00
7058;BME280;3570;43.080;25.628;2022-12-07T05:23:47;-19607.88;;;5.30;100.00
7058;BME280;3570;43.080;25.628;2022-12-07T05:26:32;-19609.06;;;5.34;100.00
7058;BME280;3570;43.080;25.628;2022-12-07T05:29:17;-19609.06;;;5.34;100.00
7058;BME280;3570;43.080;25.628;2022-12-07T05:32:01;-19607.31;;;5.28;100.00
7058;BME280;3570;43.080;25.628;2022-12-07T05:34:45;-19601.44;;;5.08;100.00
7058;BME280;3570;43.080;25.628;2022-12-07T05:37:29;-19603.19;;;5.14;100.00
7058;BME280;3570;43.080;25.628;2022-12-07T05:40:13;-19597.19;;;4.93;100.00
7058;BME280;3570;43.080;25.628;2022-12-07T05:42:58;-19604.22;;;5.17;100.00
7058;BME280;3570;43.080;25.628;2022-12-07T05:45:41;-19603.63;;;5.15;100.00
7058;BME280;3570;43.080;25.628;2022-12-07T05:48:26;-19601.72;;;5.09;100.00
7058;BME280;3570;43.080;25.628;2022-12-07T05:51:10;-19603.50;;;5.15;100.00
7058;BME280;3570;43.080;25.628;2022-12-07T05:53:54;-19599.97;;;5.03;100.00
7058;BME280;3570;43.080;25.628;2022-12-07T05:56:37;-19601.88;;;5.09;100.00
7058;BME280;3570;43.080;25.628;2022-12-07T05:59:22;-19603.34;;;5.14;100.00
7058;BME280;3570;43.080;25.628;2022-12-07T06:02:12;-19585.16;;;4.52;100.00
7058;BME280;3570;43.080;25.628;2022-12-07T06:04:56;-19606.28;;;5.24;100.00
7058;BME280;3570;43.080;25.628;2022-12-07T06:07:40;-19607.88;;;5.30;100.00
7058;BME280;3570;43.080;25.628;2022-12-07T06:10:23;-19606.13;;;5.24;100.00
7058;BME280;3570;43.080;25.628;2022-12-07T06:13:10;-19607.88;;;5.30;100.00
7058;BME280;3570;43.080;25.628;2022-12-07T06:15:54;-19605.97;;;5.23;100.00
7058;BME280;3570;43.080;25.628;2022-12-07T06:18:38;-19609.06;;;5.34;100.00
7058;BME280;3570;43.080;25.628;2022-12-07T06:21:22;-19601.16;;;5.07;100.00
7058;BME280;3570;43.080;25.628;2022-12-07T06:24:08;-19615.38;;;5.55;100.00
7058;BME280;3570;43.080;25.628;2022-12-07T06:26:52;-19614.63;;;5.53;100.00
7058;BME280;3570;43.080;25.628;2022-12-07T06:29:36;-19621.06;;;5.75;100.00
7058;BME280;3570;43.080;25.628;2022-12-07T06:32:20;-19621.53;;;5.77;100.00
7058;BME280;3570;43.080;25.628;2022-12-07T06:35:04;-19621.53;;;5.77;100.00
7058;BME280;3570;43.080;25.628;2022-12-07T06:37:49;-19623.72;;;5.84;100.00
7058;BME280;3570;43.080;25.628;2022-12-07T06:40:33;-19623.88;;;5.85;100.00
7058;BME280;3570;43.080;25.628;2022-12-07T06:43:17;-19621.38;;;5.76;100.00
7058;BME280;3570;43.080;25.628;2022-12-07T06:46:01;-19631.03;;;6.09;100.00
7058;BME280;3570;43.080;25.628;2022-12-07T06:48:45;-19633.84;;;6.19;100.00
7058;BME280;3570;43.080;25.628;2022-12-07T06:51:29;-19631.03;;;6.09;100.00
7058;BME280;3570;43.080;25.628;2022-12-07T06:54:15;-19632.06;;;6.13;100.00
7058;BME280;3570;43.080;25.628;2022-12-07T06:56:59;-19629.72;;;6.05;100.00
7058;BME280;3570;43.080;25.628;2022-12-07T06:59:43;-19628.13;;;5.99;100.00
7058;BME280;3570;43.080;25.628;2022-12-07T07:02:27;-19627.09;;;5.96;100.00
7058;BME280;3570;43.080;25.628;2022-12-07T07:05:11;-19633.25;;;6.17;100.00
7058;BME280;3570;43.080;25.628;2022-12-07T07:07:55;-19634.41;;;6.21;100.00
7058;BME280;3570;43.080;25.628;2022-12-07T07:10:39;-19626.22;;;5.93;100.00
7058;BME280;3570;43.080;25.628;2022-12-07T07:13:23;-19624.31;;;5.86;100.00
7058;BME280;3570;43.080;25.628;2022-12-07T07:16:08;-19625.91;;;5.92;100.00
7058;BME280;3570;43.080;25.628;2022-12-07T07:18:52;-19626.06;;;5.92;100.00
7058;BME280;3570;43.080;25.628;2022-12-07T07:21:36;-19621.38;;;5.76;100.00
7058;BME280;3570;43.080;25.628;2022-12-07T07:24:20;-19635.88;;;6.26;100.00
7058;BME280;3570;43.080;25.628;2022-12-07T07:27:05;-19640.72;;;6.42;100.00
7058;BME280;3570;43.080;25.628;2022-12-07T07:29:49;-19652.13;;;6.82;100.00
7058;BME280;3570;43.080;25.628;2022-12-07T07:32:33;-19660.34;;;7.10;100.00
7058;BME280;3570;43.080;25.628;2022-12-07T07:35:17;-19664.00;;;7.22;100.00
7058;BME280;3570;43.080;25.628;2022-12-07T07:38:01;-19663.56;;;7.21;100.00
7058;BME280;3570;43.080;25.628;2022-12-07T07:40:45;-19662.97;;;7.19;100.00
7058;BME280;3570;43.080;25.628;2022-12-07T07:43:29;-19665.59;;;7.28;100.00
7058;BME280;3570;43.080;25.628;2022-12-07T07:46:14;-19665.91;;;7.29;100.00
7058;BME280;3570;43.080;25.628;2022-12-07T07:48:58;-19676.28;;;7.64;100.00
7058;BME280;3570;43.080;25.628;2022-12-07T07:51:42;-19684.94;;;7.94;100.00
7058;BME280;3570;43.080;25.628;2022-12-07T07:54:26;-19683.75;;;7.90;100.00
7058;BME280;3570;43.080;25.628;2022-12-07T07:57:10;-19684.94;;;7.94;100.00
7058;BME280;3570;43.080;25.628;2022-12-07T07:59:55;-19679.50;;;7.76;100.00
7058;BME280;3570;43.080;25.628;2022-12-07T08:02:39;-19673.81;;;7.56;100.00
7058;BME280;3570;43.080;25.628;2022-12-07T08:05:23;-19660.47;;;7.10;100.00
7058;BME280;3570;43.080;25.628;2022-12-07T08:08:07;-19675.25;;;7.61;100.00
7058;BME280;3570;43.080;25.628;2022-12-07T08:10:51;-19679.06;;;7.74;100.00
7058;BME280;3570;43.080;25.628;2022-12-07T08:13:35;-19688.44;;;8.06;100.00
7058;BME280;3570;43.080;25.628;2022-12-07T08:16:19;-19687.84;;;8.04;100.00
7058;BME280;3570;43.080;25.628;2022-12-07T08:19:04;-19708.34;;;8.75;100.00
7058;BME280;3570;43.080;25.628;2022-12-07T08:21:49;-19710.81;;;8.83;100.00
7058;BME280;3570;43.080;25.628;2022-12-07T08:24:34;-19715.34;;;8.99;100.00
7058;BME280;3570;43.080;25.628;2022-12-07T08:27:18;-19723.69;;;9.27;100.00
7058;BME280;3570;43.080;25.628;2022-12-07T08:30:02;-19727.94;;;9.42;100.00
7058;BME280;3570;43.080;25.628;2022-12-07T08:32:47;-19730.84;;;9.52;100.00
7058;BME280;3570;43.080;25.628;2022-12-07T08:35:33;-19710.97;;;8.84;100.00
7058;BME280;3570;43.080;25.628;2022-12-07T08:38:18;-19708.63;;;8.76;100.00
7058;BME280;3570;43.080;25.628;2022-12-07T08:41:02;-19691.38;;;8.16;100.00
7058;BME280;3570;43.080;25.628;2022-12-07T08:43:46;-19698.25;;;8.40;100.00
7058;BME280;3570;43.080;25.628;2022-12-07T08:46:47;-19709.81;;;8.80;100.00
7058;BME280;3570;43.080;25.628;2022-12-07T08:49:37;-19740.06;;;9.84;100.00
7058;BME280;3570;43.080;25.628;2022-12-07T08:52:22;-19753.94;;;10.31;100.00
7058;BME280;3570;43.080;25.628;2022-12-07T08:55:09;-19778.47;;;11.16;100.00
7058;BME280;3570;43.080;25.628;2022-12-07T08:57:55;-19791.31;;;11.60;100.00
7058;BME280;3570;43.080;25.628;2022-12-07T09:00:40;-19807.38;;;12.15;100.00
7058;BME280;3570;43.080;25.628;2022-12-07T09:03:46;-19796.44;;;11.78;100.00
7058;BME280;3570;43.080;25.628;2022-12-07T09:06:33;-19776.44;;;11.09;100.00
7058;BME280;3570;43.080;25.628;2022-12-07T09:09:17;-19770.59;;;10.89;100.00
7058;BME280;3570;43.080;25.628;2022-12-07T09:12:02;-19783.44;;;11.33;100.00
7058;BME280;3570;43.080;25.628;2022-12-07T09:14:46;-19783.16;;;11.32;100.00
7058;BME280;3570;43.080;25.628;2022-12-07T09:17:32;-19778.63;;;11.16;100.00
7058;BME280;3570;43.080;25.628;2022-12-07T09:20:17;-19794.09;;;11.70;100.00
7058;BME280;3570;43.080;25.628;2022-12-07T09:23:01;-19811.63;;;12.30;100.00
7058;BME280;3570;43.080;25.628;2022-12-07T09:25:44;-19811.16;;;12.28;100.00
7058;BME280;3570;43.080;25.628;2022-12-07T09:28:30;-19818.19;;;12.53;100.00
7058;BME280;3570;43.080;25.628;2022-12-07T09:31:14;-19807.81;;;12.17;100.00
7058;BME280;3570;43.080;25.628;2022-12-07T09:34:00;-19799.22;;;11.87;100.00
7058;BME280;3570;43.080;25.628;2022-12-07T09:36:44;-19803.44;;;12.02;100.00
7058;BME280;3570;43.080;25.628;2022-12-07T09:39:28;-19796.16;;;11.77;100.00
7058;BME280;3570;43.080;25.628;2022-12-07T09:42:37;-19803.16;;;12.01;100.00
7058;BME280;3570;43.080;25.628;2022-12-07T09:45:26;-19830.41;;;12.95;100.00
7058;BME280;3570;43.080;25.628;2022-12-07T09:48:18;-19819.63;;;12.58;100.00
7058;BME280;3570;43.080;25.628;2022-12-07T09:51:14;-19841.22;;;13.32;100.00
7058;BME280;3570;43.080;25.628;2022-12-07T09:54:00;-19858.56;;;13.92;100.00
7058;BME280;3570;43.080;25.628;2022-12-07T09:56:44;-19871.97;;;14.38;100.00
7058;BME280;3570;43.080;25.628;2022-12-07T09:59:29;-19881.44;;;14.71;93.97
7058;BME280;3570;43.080;25.628;2022-12-07T10:05:07;-19863.66;;;14.09;93.85
7058;BME280;3570;43.080;25.628;2022-12-07T10:07:54;-19854.78;;;13.79;95.43
7058;BME280;3570;43.080;25.628;2022-12-07T10:10:38;-19864.69;;;14.13;96.02
7058;BME280;3570;43.080;25.628;2022-12-07T10:13:43;-19873.13;;;14.42;95.09
7058;BME280;3570;43.080;25.628;2022-12-07T10:16:39;-19869.78;;;14.31;94.66
7058;BME280;3570;43.080;25.628;2022-12-07T10:22:13;-19843.69;;;13.41;100.00
7058;BME280;3570;43.080;25.628;2022-12-07T10:25:09;-19853.03;;;13.73;98.51
7058;BME280;3570;43.080;25.628;2022-12-07T10:28:13;-19845.72;;;13.48;100.00
7058;BME280;3570;43.080;25.628;2022-12-07T10:31:00;-19869.34;;;14.29;98.01
7058;BME280;3570;43.080;25.628;2022-12-07T10:33:57;-19866.72;;;14.20;95.47
7058;BME280;3570;43.080;25.628;2022-12-07T10:36:41;-19889.56;;;14.99;93.44
7058;BME280;3570;43.080;25.628;2022-12-07T10:39:25;-19899.63;;;15.34;91.61
7058;BME280;3570;43.080;25.628;2022-12-07T10:42:30;-19872.09;;;14.39;94.69
7058;BME280;3570;43.080;25.628;2022-12-07T10:45:16;-19852.00;;;13.69;98.77
7058;BME280;3570;43.080;25.628;2022-12-07T10:58:05;-19870.50;;;14.33;99.82
7058;BME280;3570;43.080;25.628;2022-12-07T11:01:19;-19883.75;;;14.79;97.72
7058;BME280;3570;43.080;25.628;2022-12-07T11:16:23;-19917.97;;;15.97;88.34
7058;BME280;3570;43.080;25.628;2022-12-07T11:25:28;-19882.59;;;14.75;94.24
7058;BME280;3570;43.080;25.628;2022-12-07T11:35:03;-19902.97;;;15.45;89.98
7058;BME280;3570;43.080;25.628;2022-12-07T11:37:56;-19927.13;;;16.29;85.07
7058;BME280;3570;43.080;25.628;2022-12-07T11:40:48;-19936.56;;;16.61;83.53
7058;BME280;3570;43.080;25.628;2022-12-07T11:43:34;-19985.38;;;18.30;78.43
7058;BME280;3570;43.080;25.628;2022-12-07T11:46:22;-20008.19;;;19.09;74.23
7058;BME280;3570;43.080;25.628;2022-12-07T11:52:06;-20048.94;;;20.50;67.38
7058;BME280;3570;43.080;25.628;2022-12-07T11:54:53;-20031.38;;;19.90;68.90
7058;BME280;3570;43.080;25.628;2022-12-07T11:57:42;-20024.13;;;19.64;69.39
7058;BME280;3570;43.080;25.628;2022-12-07T12:00:30;-20025.31;;;19.68;69.32
7058;BME280;3570;43.080;25.628;2022-12-07T12:03:28;-20043.44;;;20.31;67.13
7058;BME280;3570;43.080;25.628;2022-12-07T12:06:15;-20075.31;;;21.42;63.48
7058;BME280;3570;43.080;25.628;2022-12-07T12:17:39;-20109.88;;;22.62;57.44
7058;BME280;3570;43.080;25.628;2022-12-07T12:20:54;-20098.75;;;22.23;57.09
7058;BME280;3570;43.080;25.628;2022-12-07T12:23:57;-20106.13;;;22.49;57.11
7058;BME280;3570;43.080;25.628;2022-12-07T12:26:50;-20089.50;;;21.91;58.75
7058;BME280;3570;43.080;25.628;2022-12-07T12:29:39;-20098.88;;;22.24;57.54
7058;BME280;3570;43.080;25.628;2022-12-07T12:32:42;-20102.78;;;22.37;56.96
7058;BME280;3570;43.080;25.628;2022-12-07T12:35:32;-20102.38;;;22.36;56.18
7058;BME280;3570;43.080;25.628;2022-12-07T12:38:33;-20096.59;;;22.16;56.59
7058;BME280;3570;43.080;25.628;2022-12-07T12:47:41;-20104.81;;;22.44;56.56
7058;BME280;3570;43.080;25.628;2022-12-07T13:05:22;-20046.75;;;20.43;59.65
7058;BME280;3570;43.080;25.628;2022-12-07T13:11:19;-19994.25;;;18.61;66.94
7058;BME280;3570;43.080;25.628;2022-12-07T13:14:40;-19985.38;;;18.30;70.00
7058;BME280;3570;43.080;25.628;2022-12-07T13:26:41;-19952.56;;;17.17;74.86
7058;BME280;3570;43.080;25.628;2022-12-07T13:29:26;-19933.53;;;16.51;79.14
7058;BME280;3570;43.080;25.628;2022-12-07T13:32:23;-19917.22;;;15.94;82.82
7058;BME280;3570;43.080;25.628;2022-12-07T13:35:27;-19912.00;;;15.76;85.07
7058;BME280;3570;43.080;25.628;2022-12-07T13:38:33;-19910.69;;;15.72;86.10
7058;BME280;3570;43.080;25.628;2022-12-07T13:41:19;-19896.84;;;15.24;88.53
7058;BME280;3570;43.080;25.628;2022-12-07T13:44:17;-19879.97;;;14.66;92.66
7058;BME280;3570;43.080;25.628;2022-12-07T13:47:22;-19874.00;;;14.45;94.81
7058;BME280;3570;43.080;25.628;2022-12-07T13:50:26;-19855.63;;;13.82;97.85
7058;BME280;3570;43.080;25.628;2022-12-07T13:53:12;-19840.63;;;13.30;100.00
7058;BME280;3570;43.080;25.628;2022-12-07T13:55:59;-19833.78;;;13.06;100.00
7058;BME280;3570;43.080;25.628;2022-12-07T13:58:43;-19832.31;;;13.01;100.00
7058;BME280;3570;43.080;25.628;2022-12-07T14:01:30;-19825.47;;;12.78;100.00
7058;BME280;3570;43.080;25.628;2022-12-07T14:04:34;-19819.03;;;12.56;100.00
7058;BME280;3570;43.080;25.628;2022-12-07T14:07:26;-19803.88;;;12.03;100.00
7058;BME280;3570;43.080;25.628;2022-12-07T14:10:30;-19795.25;;;11.74;100.00
7058;BME280;3570;43.080;25.628;2022-12-07T14:13:33;-19800.09;;;11.90;100.00
7058;BME280;3570;43.080;25.628;2022-12-07T14:16:33;-19795.56;;;11.75;100.00
7058;BME280;3570;43.080;25.628;2022-12-07T14:22:34;-19781.41;;;11.26;100.00
7058;BME280;3570;43.080;25.628;2022-12-07T14:25:21;-19760.06;;;10.53;100.00
7058;BME280;3570;43.080;25.628;2022-12-07T14:28:10;-19767.97;;;10.80;100.00
7058;BME280;3570;43.080;25.628;2022-12-07T14:31:13;-19761.41;;;10.57;100.00
7058;BME280;3570;43.080;25.628;2022-12-07T14:34:00;-19755.69;;;10.37;100.00
7058;BME280;3570;43.080;25.628;2022-12-07T14:36:44;-19752.19;;;10.25;100.00
7058;BME280;3570;43.080;25.628;2022-12-07T14:39:28;-19750.72;;;10.20;100.00
7058;BME280;3570;43.080;25.628;2022-12-07T14:42:12;-19743.56;;;9.96;100.00
7058;BME280;3570;43.080;25.628;2022-12-07T14:44:56;-19742.53;;;9.92;100.00
7058;BME280;3570;43.080;25.628;2022-12-07T14:47:41;-19743.72;;;9.96;100.00
7058;BME280;3570;43.080;25.628;2022-12-07T14:50:25;-19734.50;;;9.65;100.00
7058;BME280;3570;43.080;25.628;2022-12-07T14:53:17;-19730.56;;;9.51;100.00
7058;BME280;3570;43.080;25.628;2022-12-07T14:56:03;-19719.75;;;9.14;100.00
7058;BME280;3570;43.080;25.628;2022-12-07T14:58:49;-19721.34;;;9.19;100.00
7058;BME280;3570;43.080;25.628;2022-12-07T15:01:33;-19715.94;;;9.01;100.00
7058;BME280;3570;43.080;25.628;2022-12-07T15:04:18;-19712.28;;;8.88;100.00
7058;BME280;3570;43.080;25.628;2022-12-07T15:07:04;-19705.41;;;8.65;100.00
7058;BME280;3570;43.080;25.628;2022-12-07T15:09:48;-19704.81;;;8.63;100.00
7058;BME280;3570;43.080;25.628;2022-12-07T15:12:33;-19706.13;;;8.67;100.00
7058;BME280;3570;43.080;25.628;2022-12-07T15:15:17;-19704.81;;;8.63;100.00
7058;BME280;3570;43.080;25.628;2022-12-07T15:18:01;-19703.22;;;8.57;100.00
7058;BME280;3570;43.080;25.628;2022-12-07T15:20:45;-19691.66;;;8.17;100.00
7058;BME280;3570;43.080;25.628;2022-12-07T15:23:30;-19686.97;;;8.01;100.00
7058;BME280;3570;43.080;25.628;2022-12-07T15:26:14;-19687.84;;;8.04;100.00
7058;BME280;3570;43.080;25.628;2022-12-07T15:28:58;-19684.03;;;7.91;100.00
7058;BME280;3570;43.080;25.628;2022-12-07T15:31:42;-19690.19;;;8.12;100.00
7058;BME280;3570;43.080;25.628;2022-12-07T15:34:27;-19687.56;;;8.03;100.00
7058;BME280;3570;43.080;25.628;2022-12-07T15:37:12;-19686.97;;;8.01;100.00
7058;BME280;3570;43.080;25.628;2022-12-07T15:39:56;-19683.59;;;7.90;100.00
7058;BME280;3570;43.080;25.628;2022-12-07T15:42:40;-19679.66;;;7.76;100.00
7058;BME280;3570;43.080;25.628;2022-12-07T15:45:27;-19677.59;;;7.69;100.00
7058;BME280;3570;43.080;25.628;2022-12-07T15:48:12;-19677.59;;;7.69;100.00
7058;BME280;3570;43.080;25.628;2022-12-07T15:51:07;-19684.34;;;7.92;100.00
7058;BME280;3570;43.080;25.628;2022-12-07T15:53:52;-19679.66;;;7.76;100.00
7058;BME280;3570;43.080;25.628;2022-12-07T15:56:36;-19683.75;;;7.90;100.00
7058;BME280;3570;43.080;25.628;2022-12-07T15:59:21;-19681.13;;;7.81;100.00
7058;BME280;3570;43.080;25.628;2022-12-07T16:02:05;-19682.44;;;7.86;100.00
7058;BME280;3570;43.080;25.628;2022-12-07T16:04:50;-19677.75;;;7.70;100.00
7058;BME280;3570;43.080;25.628;2022-12-07T16:07:34;-19677.75;;;7.70;100.00
7058;BME280;3570;43.080;25.628;2022-12-07T16:10:18;-19677.59;;;7.69;100.00
7058;BME280;3570;43.080;25.628;2022-12-07T16:13:02;-19668.53;;;7.38;100.00
7058;BME280;3570;43.080;25.628;2022-12-07T16:15:46;-19648.19;;;6.68;100.00
7058;BME280;3570;43.080;25.628;2022-12-07T16:18:30;-19657.25;;;6.99;100.00
7058;BME280;3570;43.080;25.628;2022-12-07T16:21:14;-19651.25;;;6.79;100.00
7058;BME280;3570;43.080;25.628;2022-12-07T16:23:59;-19654.91;;;6.91;100.00
7058;BME280;3570;43.080;25.628;2022-12-07T16:26:44;-19654.78;;;6.91;100.00
7058;BME280;3570;43.080;25.628;2022-12-07T16:29:28;-19653.91;;;6.88;100.00
7058;BME280;3570;43.080;25.628;2022-12-07T16:32:12;-19651.69;;;6.80;100.00
7058;BME280;3570;43.080;25.628;2022-12-07T16:34:56;-19656.53;;;6.97;100.00
7058;BME280;3570;43.080;25.628;2022-12-07T16:37:42;-19647.75;;;6.66;100.00
7058;BME280;3570;43.080;25.628;2022-12-07T16:40:26;-19651.84;;;6.81;100.00
7058;BME280;3570;43.080;25.628;2022-12-07T16:43:11;-19644.81;;;6.56;100.00
7058;BME280;3570;43.080;25.628;2022-12-07T16:45:57;-19650.97;;;6.78;100.00
7058;BME280;3570;43.080;25.628;2022-12-07T16:48:41;-19649.06;;;6.71;100.00
7058;BME280;3570;43.080;25.628;2022-12-07T16:51:25;-19646.13;;;6.61;100.00
7058;BME280;3570;43.080;25.628;2022-12-07T16:54:11;-19647.88;;;6.67;100.00
7058;BME280;3570;43.080;25.628;2022-12-07T16:56:55;-19646.72;;;6.63;100.00
7058;BME280;3570;43.080;25.628;2022-12-07T16:59:39;-19639.53;;;6.38;100.00
7058;BME280;3570;43.080;25.628;2022-12-07T17:02:23;-19642.91;;;6.50;100.00
7058;BME280;3570;43.080;25.628;2022-12-07T17:05:07;-19641.31;;;6.44;100.00
7058;BME280;3570;43.080;25.628;2022-12-07T17:07:52;-19645.09;;;6.57;100.00
7058;BME280;3570;43.080;25.628;2022-12-07T17:10:38;-19647.75;;;6.66;100.00
7058;BME280;3570;43.080;25.628;2022-12-07T17:13:22;-19651.41;;;6.79;100.00
7058;BME280;3570;43.080;25.628;2022-12-07T17:16:25;-19654.47;;;6.90;100.00
7058;BME280;3570;43.080;25.628;2022-12-07T17:19:12;-19656.97;;;6.98;100.00
7058;BME280;3570;43.080;25.628;2022-12-07T17:21:56;-19662.81;;;7.18;100.00
7058;BME280;3570;43.080;25.628;2022-12-07T17:24:40;-19665.59;;;7.28;100.00